sensor_id;sensor_type;location;lat;lon;timestamp;P1;durP1;ratioP1;P2;durP2;ratioP2
22378;SDS011;11357;49.990;7.370;2023-05-10T00:01:55;1002.20;;;516.03;;
22378;SDS011;11357;49.990;7.370;2023-05-10T00:04:21;1021.07;;;517.33;;
22378;SDS011;11357;49.990;7.370;2023-05-10T00:06:47;1149.33;;;531.97;;
22378;SDS011;11357;49.990;7.370;2023-05-10T00:09:13;1074.03;;;537.13;;
22378;SDS011;11357;49.990;7.370;2023-05-10T00:11:38;1267.97;;;573.47;;
22378;SDS011;11357;49.990;7.370;2023-05-10T00:14:04;1005.00;;;492.30;;
22378;SDS011;11357;49.990;7.370;2023-05-10T00:16:30;1052.53;;;538.57;;
22378;SDS011;11357;49.990;7.370;2023-05-10T00:18:55;1133.20;;;514.63;;
22378;SDS011;11357;49.990;7.370;2023-05-10T00:21:21;1087.37;;;491.43;;
22378;SDS011;11357;49.990;7.370;2023-05-10T00:23:47;1006.17;;;526.00;;
22378;SDS011;11357;49.990;7.370;2023-05-10T00:26:12;1037.83;;;503.80;;
22378;SDS011;11357;49.990;7.370;2023-05-10T00:28:38;971.87;;;513.77;;
22378;SDS011;11357;49.990;7.370;2023-05-10T00:31:04;1050.73;;;546.87;;
22378;SDS011;11357;49.990;7.370;2023-05-10T00:33:29;1005.90;;;537.53;;
22378;SDS011;11357;49.990;7.370;2023-05-10T00:35:55;1154.17;;;521.47;;
22378;SDS011;11357;49.990;7.370;2023-05-10T00:38:21;992.13;;;514.33;;
22378;SDS011;11357;49.990;7.370;2023-05-10T00:40:46;894.83;;;501.80;;
22378;SDS011;11357;49.990;7.370;2023-05-10T00:43:12;972.20;;;525.57;;
22378;SDS011;11357;49.990;7.370;2023-05-10T00:45:38;932.80;;;506.73;;
22378;SDS011;11357;49.990;7.370;2023-05-10T00:48:05;1083.77;;;513.57;;
22378;SDS011;11357;49.990;7.370;2023-05-10T00:50:31;1138.77;;;555.97;;
22378;SDS011;11357;49.990;7.370;2023-05-10T00:52:59;1052.23;;;537.07;;
22378;SDS011;11357;49.990;7.370;2023-05-10T00:55:25;1014.63;;;501.47;;
22378;SDS011;11357;49.990;7.370;2023-05-10T00:57:52;1034.63;;;549.67;;
22378;SDS011;11357;49.990;7.370;2023-05-10T01:00:18;1264.50;;;567.87;;
22378;SDS011;11357;49.990;7.370;2023-05-10T01:02:45;1216.67;;;611.73;;
22378;SDS011;11357;49.990;7.370;2023-05-10T01:05:11;1110.07;;;580.47;;
22378;SDS011;11357;49.990;7.370;2023-05-10T01:07:37;1008.90;;;509.40;;
22378;SDS011;11357;49.990;7.370;2023-05-10T01:10:03;995.47;;;517.87;;
22378;SDS011;11357;49.990;7.370;2023-05-10T01:12:30;1022.77;;;522.63;;
22378;SDS011;11357;49.990;7.370;2023-05-10T01:14:55;1296.17;;;587.70;;
22378;SDS011;11357;49.990;7.370;2023-05-10T01:17:22;943.57;;;512.00;;
22378;SDS011;11357;49.990;7.370;2023-05-10T01:19:49;1083.13;;;542.40;;
22378;SDS011;11357;49.990;7.370;2023-05-10T01:31:03;1303.07;;;659.93;;
22378;SDS011;11357;49.990;7.370;2023-05-10T01:33:54;1201.77;;;604.00;;
22378;SDS011;11357;49.990;7.370;2023-05-10T01:36:29;1328.53;;;612.37;;
22378;SDS011;11357;49.990;7.370;2023-05-10T01:41:36;1428.20;;;610.90;;
22378;SDS011;11357;49.990;7.370;2023-05-10T01:47:20;1320.57;;;777.00;;
22378;SDS011;11357;49.990;7.370;2023-05-10T01:49:49;1749.13;;;722.50;;
22378;SDS011;11357;49.990;7.370;2023-05-10T01:52:18;1355.50;;;672.03;;
22378;SDS011;11357;49.990;7.370;2023-05-10T01:54:52;1204.63;;;610.03;;
22378;SDS011;11357;49.990;7.370;2023-05-10T01:57:22;1275.50;;;630.03;;
22378;SDS011;11357;49.990;7.370;2023-05-10T01:59:51;1230.27;;;612.87;;
22378;SDS011;11357;49.990;7.370;2023-05-10T02:02:19;1520.97;;;720.90;;
22378;SDS011;11357;49.990;7.370;2023-05-10T02:04:46;1574.10;;;759.60;;
22378;SDS011;11357;49.990;7.370;2023-05-10T02:07:14;1251.97;;;625.50;;
22378;SDS011;11357;49.990;7.370;2023-05-10T02:09:40;1192.37;;;618.53;;
22378;SDS011;11357;49.990;7.370;2023-05-10T02:12:09;1264.37;;;642.23;;
22378;SDS011;11357;49.990;7.370;2023-05-10T02:14:37;1483.57;;;643.13;;
22378;SDS011;11357;49.990;7.370;2023-05-10T02:17:05;1099.53;;;584.10;;
22378;SDS011;11357;49.990;7.370;2023-05-10T02:19:33;1175.27;;;592.63;;
22378;SDS011;11357;49.990;7.370;2023-05-10T02:22:01;1578.37;;;744.33;;
22378;SDS011;11357;49.990;7.370;2023-05-10T02:24:28;1439.97;;;694.03;;
22378;SDS011;11357;49.990;7.370;2023-05-10T02:26:55;1432.87;;;589.87;;
22378;SDS011;11357;49.990;7.370;2023-05-10T02:29:23;1332.33;;;626.67;;
22378;SDS011;11357;49.990;7.370;2023-05-10T02:31:51;1373.17;;;655.30;;
22378;SDS011;11357;49.990;7.370;2023-05-10T02:34:19;1854.90;;;849.27;;
22378;SDS011;11357;49.990;7.370;2023-05-10T02:36:47;1387.03;;;632.27;;
22378;SDS011;11357;49.990;7.370;2023-05-10T02:39:13;1154.10;;;622.50;;
22378;SDS011;11357;49.990;7.370;2023-05-10T02:41:40;1632.63;;;657.67;;
22378;SDS011;11357;49.990;7.370;2023-05-10T02:44:08;1325.43;;;658.63;;
22378;SDS011;11357;49.990;7.370;2023-05-10T02:46:35;1331.37;;;675.07;;
22378;SDS011;11357;49.990;7.370;2023-05-10T02:49:02;1294.77;;;657.47;;
22378;SDS011;11357;49.990;7.370;2023-05-10T02:51:30;1375.67;;;636.50;;
22378;SDS011;11357;49.990;7.370;2023-05-10T02:53:57;1754.03;;;712.13;;
22378;SDS011;11357;49.990;7.370;2023-05-10T02:56:37;1377.97;;;688.70;;
22378;SDS011;11357;49.990;7.370;2023-05-10T02:59:12;1697.63;;;705.47;;
22378;SDS011;11357;49.990;7.370;2023-05-10T03:01:37;1423.77;;;669.33;;
22378;SDS011;11357;49.990;7.370;2023-05-10T03:04:03;1470.67;;;671.07;;
22378;SDS011;11357;49.990;7.370;2023-05-10T03:06:29;1324.97;;;665.60;;
22378;SDS011;11357;49.990;7.370;2023-05-10T03:08:55;1573.70;;;793.70;;
22378;SDS011;11357;49.990;7.370;2023-05-10T03:17:00;1950.23;;;798.23;;
22378;SDS011;11357;49.990;7.370;2023-05-10T03:22:08;1721.23;;;787.60;;
22378;SDS011;11357;49.990;7.370;2023-05-10T03:24:38;1482.93;;;740.50;;
22378;SDS011;11357;49.990;7.370;2023-05-10T03:27:06;1403.60;;;669.43;;
22378;SDS011;11357;49.990;7.370;2023-05-10T03:29:33;1464.47;;;697.07;;
22378;SDS011;11357;49.990;7.370;2023-05-10T03:31:59;1351.53;;;662.53;;
22378;SDS011;11357;49.990;7.370;2023-05-10T03:34:25;1409.07;;;765.17;;
22378;SDS011;11357;49.990;7.370;2023-05-10T03:36:51;1422.83;;;709.00;;
22378;SDS011;11357;49.990;7.370;2023-05-10T03:39:17;1336.53;;;673.70;;
22378;SDS011;11357;49.990;7.370;2023-05-10T03:41:42;1709.23;;;769.43;;
22378;SDS011;11357;49.990;7.370;2023-05-10T03:44:08;1074.20;;;639.27;;
22378;SDS011;11357;49.990;7.370;2023-05-10T03:46:34;1253.33;;;694.47;;
22378;SDS011;11357;49.990;7.370;2023-05-10T03:48:59;1361.07;;;700.43;;
22378;SDS011;11357;49.990;7.370;2023-05-10T03:51:25;1434.73;;;743.90;;
22378;SDS011;11357;49.990;7.370;2023-05-10T03:53:53;1466.47;;;707.23;;
22378;SDS011;11357;49.990;7.370;2023-05-10T03:56:21;1344.43;;;690.57;;
22378;SDS011;11357;49.990;7.370;2023-05-10T03:58:47;1393.33;;;701.83;;
22378;SDS011;11357;49.990;7.370;2023-05-10T04:01:13;1433.60;;;716.33;;
22378;SDS011;11357;49.990;7.370;2023-05-10T04:03:38;1384.00;;;725.57;;
22378;SDS011;11357;49.990;7.370;2023-05-10T04:06:04;1463.20;;;714.63;;
22378;SDS011;11357;49.990;7.370;2023-05-10T04:08:30;1999.53;;;800.33;;
22378;SDS011;11357;49.990;7.370;2023-05-10T04:11:06;1393.93;;;713.23;;
22378;SDS011;11357;49.990;7.370;2023-05-10T04:13:32;1706.60;;;774.53;;
22378;SDS011;11357;49.990;7.370;2023-05-10T04:15:58;1322.87;;;713.03;;
22378;SDS011;11357;49.990;7.370;2023-05-10T04:18:24;1483.07;;;730.07;;
22378;SDS011;11357;49.990;7.370;2023-05-10T04:20:49;1633.33;;;740.83;;
22378;SDS011;11357;49.990;7.370;2023-05-10T04:23:15;1978.03;;;826.30;;
22378;SDS011;11357;49.990;7.370;2023-05-10T04:25:41;1554.03;;;806.23;;
22378;SDS011;11357;49.990;7.370;2023-05-10T04:28:07;1462.63;;;751.93;;
22378;SDS011;11357;49.990;7.370;2023-05-10T04:30:33;1425.20;;;752.03;;
22378;SDS011;11357;49.990;7.370;2023-05-10T04:32:59;1362.80;;;719.97;;
22378;SDS011;11357;49.990;7.370;2023-05-10T04:35:26;1544.67;;;789.33;;
22378;SDS011;11357;49.990;7.370;2023-05-10T04:37:53;1557.90;;;766.00;;
22378;SDS011;11357;49.990;7.370;2023-05-10T04:40:19;1979.83;;;866.17;;
22378;SDS011;11357;49.990;7.370;2023-05-10T04:42:45;1413.37;;;736.43;;
22378;SDS011;11357;49.990;7.370;2023-05-10T04:45:10;1805.10;;;790.27;;
22378;SDS011;11357;49.990;7.370;2023-05-10T04:47:36;1699.67;;;755.10;;
22378;SDS011;11357;49.990;7.370;2023-05-10T04:50:03;1475.07;;;748.77;;
22378;SDS011;11357;49.990;7.370;2023-05-10T04:52:29;1491.53;;;753.70;;
22378;SDS011;11357;49.990;7.370;2023-05-10T04:54:55;1420.70;;;738.93;;
22378;SDS011;11357;49.990;7.370;2023-05-10T04:57:20;1469.43;;;755.80;;
22378;SDS011;11357;49.990;7.370;2023-05-10T04:59:46;1635.40;;;729.93;;
22378;SDS011;11357;49.990;7.370;2023-05-10T05:02:12;1571.53;;;806.33;;
22378;SDS011;11357;49.990;7.370;2023-05-10T05:04:37;1668.47;;;799.23;;
22378;SDS011;11357;49.990;7.370;2023-05-10T06:10:08;1571.53;;;802.07;;
22378;SDS011;11357;49.990;7.370;2023-05-10T06:12:35;1470.97;;;754.03;;
22378;SDS011;11357;49.990;7.370;2023-05-10T06:15:01;1693.43;;;789.10;;
22378;SDS011;11357;49.990;7.370;2023-05-10T06:17:27;1356.27;;;704.40;;
22378;SDS011;11357;49.990;7.370;2023-05-10T06:19:53;1273.50;;;722.77;;
22378;SDS011;11357;49.990;7.370;2023-05-10T06:27:39;1552.67;;;753.20;;
22378;SDS011;11357;49.990;7.370;2023-05-10T06:30:14;1375.50;;;708.67;;
22378;SDS011;11357;49.990;7.370;2023-05-10T06:32:40;1353.83;;;709.57;;
22378;SDS011;11357;49.990;7.370;2023-05-10T06:35:06;1411.83;;;715.03;;
22378;SDS011;11357;49.990;7.370;2023-05-10T06:37:32;1346.57;;;733.27;;
22378;SDS011;11357;49.990;7.370;2023-05-10T06:39:59;1531.47;;;686.30;;
22378;SDS011;11357;49.990;7.370;2023-05-10T06:42:25;1517.97;;;698.67;;
22378;SDS011;11357;49.990;7.370;2023-05-10T06:44:52;1334.37;;;660.60;;
22378;SDS011;11357;49.990;7.370;2023-05-10T06:55:56;1423.57;;;756.30;;
22378;SDS011;11357;49.990;7.370;2023-05-10T06:58:22;1204.57;;;684.50;;
22378;SDS011;11357;49.990;7.370;2023-05-10T07:00:47;1357.07;;;680.33;;
22378;SDS011;11357;49.990;7.370;2023-05-10T07:03:13;1549.43;;;737.27;;
22378;SDS011;11357;49.990;7.370;2023-05-10T07:05:38;1322.53;;;680.40;;
22378;SDS011;11357;49.990;7.370;2023-05-10T07:08:04;1446.80;;;756.27;;
22378;SDS011;11357;49.990;7.370;2023-05-10T07:10:30;1291.30;;;722.30;;
22378;SDS011;11357;49.990;7.370;2023-05-10T07:12:55;1410.37;;;727.17;;
22378;SDS011;11357;49.990;7.370;2023-05-10T07:15:21;1999.90;;;750.87;;
22378;SDS011;11357;49.990;7.370;2023-05-10T07:17:47;1626.80;;;867.63;;
22378;SDS011;11357;49.990;7.370;2023-05-10T07:20:13;1409.93;;;785.87;;
22378;SDS011;11357;49.990;7.370;2023-05-10T07:22:38;1598.30;;;790.17;;
22378;SDS011;11357;49.990;7.370;2023-05-10T07:25:04;1445.87;;;750.87;;
22378;SDS011;11357;49.990;7.370;2023-05-10T07:35:16;1477.50;;;747.60;;
22378;SDS011;11357;49.990;7.370;2023-05-10T07:37:42;1666.10;;;770.43;;
22378;SDS011;11357;49.990;7.370;2023-05-10T07:40:08;1591.33;;;768.47;;
22378;SDS011;11357;49.990;7.370;2023-05-10T07:42:34;1862.40;;;867.40;;
22378;SDS011;11357;49.990;7.370;2023-05-10T07:45:00;1696.47;;;775.73;;
22378;SDS011;11357;49.990;7.370;2023-05-10T07:47:25;1553.70;;;818.60;;
22378;SDS011;11357;49.990;7.370;2023-05-10T07:49:51;1919.00;;;867.07;;
22378;SDS011;11357;49.990;7.370;2023-05-10T07:52:17;1731.77;;;829.07;;
22378;SDS011;11357;49.990;7.370;2023-05-10T07:54:42;1999.90;;;758.00;;
22378;SDS011;11357;49.990;7.370;2023-05-10T07:59:55;1999.90;;;763.83;;
22378;SDS011;11357;49.990;7.370;2023-05-10T08:02:21;1999.90;;;843.03;;
22378;SDS011;11357;49.990;7.370;2023-05-10T08:04:47;1999.90;;;808.90;;
22378;SDS011;11357;49.990;7.370;2023-05-10T08:07:12;1999.90;;;790.20;;
22378;SDS011;11357;49.990;7.370;2023-05-10T08:09:38;1999.90;;;733.07;;
22378;SDS011;11357;49.990;7.370;2023-05-10T08:12:04;1999.90;;;844.63;;
22378;SDS011;11357;49.990;7.370;2023-05-10T08:14:30;1989.47;;;825.07;;
22378;SDS011;11357;49.990;7.370;2023-05-10T08:36:58;1999.90;;;699.07;;
22378;SDS011;11357;49.990;7.370;2023-05-10T08:39:23;1999.90;;;722.67;;
22378;SDS011;11357;49.990;7.370;2023-05-10T08:41:50;1989.53;;;679.37;;
22378;SDS011;11357;49.990;7.370;2023-05-10T08:44:18;1999.90;;;616.93;;
22378;SDS011;11357;49.990;7.370;2023-05-10T08:46:45;1999.90;;;703.10;;
22378;SDS011;11357;49.990;7.370;2023-05-10T08:49:16;1999.90;;;569.37;;
22378;SDS011;11357;49.990;7.370;2023-05-10T08:51:47;1999.90;;;761.23;;
22378;SDS011;11357;49.990;7.370;2023-05-10T08:54:17;1999.90;;;611.27;;
22378;SDS011;11357;49.990;7.370;2023-05-10T08:56:42;1999.90;;;999.90;;
22378;SDS011;11357;49.990;7.370;2023-05-10T08:59:08;1999.90;;;703.47;;
22378;SDS011;11357;49.990;7.370;2023-05-10T09:01:35;1999.90;;;791.47;;
22378;SDS011;11357;49.990;7.370;2023-05-10T09:04:02;1999.90;;;593.27;;
22378;SDS011;11357;49.990;7.370;2023-05-10T09:06:29;1999.90;;;734.87;;
22378;SDS011;11357;49.990;7.370;2023-05-10T09:12:07;1999.90;;;670.80;;
22378;SDS011;11357;49.990;7.370;2023-05-10T09:14:36;1999.90;;;794.10;;
22378;SDS011;11357;49.990;7.370;2023-05-10T09:17:02;1999.90;;;711.53;;
22378;SDS011;11357;49.990;7.370;2023-05-10T09:19:29;1999.90;;;728.97;;
22378;SDS011;11357;49.990;7.370;2023-05-10T09:21:55;1999.90;;;531.23;;
22378;SDS011;11357;49.990;7.370;2023-05-10T09:24:24;1999.90;;;999.90;;
22378;SDS011;11357;49.990;7.370;2023-05-10T09:26:51;1999.90;;;999.90;;
22378;SDS011;11357;49.990;7.370;2023-05-10T09:29:17;1999.90;;;999.90;;
22378;SDS011;11357;49.990;7.370;2023-05-10T09:31:50;286.30;;;261.73;;
22378;SDS011;11357;49.990;7.370;2023-05-10T09:34:17;444.33;;;400.60;;
22378;SDS011;11357;49.990;7.370;2023-05-10T09:36:54;566.50;;;428.55;;
22378;SDS011;11357;49.990;7.370;2023-05-10T09:39:29;530.00;;;414.33;;
22378;SDS011;11357;49.990;7.370;2023-05-10T09:41:57;244.93;;;223.30;;
22378;SDS011;11357;49.990;7.370;2023-05-10T09:44:25;4.70;;;4.35;;
22378;SDS011;11357;49.990;7.370;2023-05-10T09:46:51;2.10;;;1.85;;
22378;SDS011;11357;49.990;7.370;2023-05-10T09:49:29;2.67;;;2.10;;
22378;SDS011;11357;49.990;7.370;2023-05-10T09:52:05;0.98;;;0.68;;
22378;SDS011;11357;49.990;7.370;2023-05-10T09:54:32;0.70;;;0.70;;
22378;SDS011;11357;49.990;7.370;2023-05-10T09:56:59;1.58;;;0.70;;
22378;SDS011;11357;49.990;7.370;2023-05-10T09:59:26;3.53;;;0.93;;
22378;SDS011;11357;49.990;7.370;2023-05-10T10:01:55;1.02;;;0.57;;
22378;SDS011;11357;49.990;7.370;2023-05-10T10:04:22;1.63;;;0.88;;
22378;SDS011;11357;49.990;7.370;2023-05-10T10:06:58;0.80;;;0.77;;
22378;SDS011;11357;49.990;7.370;2023-05-10T10:09:28;0.30;;;0.30;;
22378;SDS011;11357;49.990;7.370;2023-05-10T10:11:55;0.60;;;0.60;;
22378;SDS011;11357;49.990;7.370;2023-05-10T10:14:22;2.30;;;0.73;;
22378;SDS011;11357;49.990;7.370;2023-05-10T10:16:54;1.90;;;0.50;;
22378;SDS011;11357;49.990;7.370;2023-05-10T10:19:23;0.50;;;0.50;;
22378;SDS011;11357;49.990;7.370;2023-05-10T10:21:50;5.05;;;0.82;;
22378;SDS011;11357;49.990;7.370;2023-05-10T10:24:20;0.85;;;0.85;;
22378;SDS011;11357;49.990;7.370;2023-05-10T10:26:47;2.17;;;0.50;;
22378;SDS011;11357;49.990;7.370;2023-05-10T10:35:05;1.00;;;1.00;;
22378;SDS011;11357;49.990;7.370;2023-05-10T10:37:46;3.00;;;1.42;;
22378;SDS011;11357;49.990;7.370;2023-05-10T10:55:17;31.02;;;29.27;;
22378;SDS011;11357;49.990;7.370;2023-05-10T11:03:11;3.13;;;1.25;;
22378;SDS011;11357;49.990;7.370;2023-05-10T11:05:43;2.33;;;0.63;;
22378;SDS011;11357;49.990;7.370;2023-05-10T11:08:13;1.50;;;1.23;;
22378;SDS011;11357;49.990;7.370;2023-05-10T11:10:48;1.20;;;1.05;;
22378;SDS011;11357;49.990;7.370;2023-05-10T11:13:26;3.03;;;2.22;;
22378;SDS011;11357;49.990;7.370;2023-05-10T11:15:54;1.25;;;0.77;;
22378;SDS011;11357;49.990;7.370;2023-05-10T11:18:28;1.77;;;1.55;;
22378;SDS011;11357;49.990;7.370;2023-05-10T11:20:59;0.95;;;0.70;;
22378;SDS011;11357;49.990;7.370;2023-05-10T11:26:12;2.53;;;0.95;;
22378;SDS011;11357;49.990;7.370;2023-05-10T11:28:41;1.85;;;1.60;;
22378;SDS011;11357;49.990;7.370;2023-05-10T11:31:13;3.47;;;3.17;;
22378;SDS011;11357;49.990;7.370;2023-05-10T11:33:43;1.35;;;0.85;;
22378;SDS011;11357;49.990;7.370;2023-05-10T11:36:43;2.28;;;1.88;;
22378;SDS011;11357;49.990;7.370;2023-05-10T11:39:03;0.90;;;0.75;;
22378;SDS011;11357;49.990;7.370;2023-05-10T11:41:30;1.15;;;1.05;;
22378;SDS011;11357;49.990;7.370;2023-05-10T11:43:58;9.77;;;9.10;;
22378;SDS011;11357;49.990;7.370;2023-05-10T11:46:27;2.03;;;1.00;;
22378;SDS011;11357;49.990;7.370;2023-05-10T11:48:55;8.45;;;7.90;;
22378;SDS011;11357;49.990;7.370;2023-05-10T11:51:25;39.92;;;37.70;;
22378;SDS011;11357;49.990;7.370;2023-05-10T11:53:52;10.63;;;9.95;;
22378;SDS011;11357;49.990;7.370;2023-05-10T11:56:20;3.00;;;2.08;;
22378;SDS011;11357;49.990;7.370;2023-05-10T11:58:52;1.75;;;0.93;;
22378;SDS011;11357;49.990;7.370;2023-05-10T12:01:20;1.17;;;0.90;;
22378;SDS011;11357;49.990;7.370;2023-05-10T12:03:47;1.70;;;1.13;;
22378;SDS011;11357;49.990;7.370;2023-05-10T12:06:13;4.20;;;1.20;;
22378;SDS011;11357;49.990;7.370;2023-05-10T12:08:43;1.95;;;1.02;;
22378;SDS011;11357;49.990;7.370;2023-05-10T12:13:52;3.15;;;1.17;;
22378;SDS011;11357;49.990;7.370;2023-05-10T12:16:19;1.98;;;1.17;;
22378;SDS011;11357;49.990;7.370;2023-05-10T12:18:53;1.30;;;1.00;;
22378;SDS011;11357;49.990;7.370;2023-05-10T12:21:21;2.70;;;1.20;;
22378;SDS011;11357;49.990;7.370;2023-05-10T12:23:48;3.42;;;1.08;;
22378;SDS011;11357;49.990;7.370;2023-05-10T12:26:16;2.17;;;1.00;;
22378;SDS011;11357;49.990;7.370;2023-05-10T12:28:42;2.42;;;1.13;;
22378;SDS011;11357;49.990;7.370;2023-05-10T12:31:08;2.33;;;1.15;;
22378;SDS011;11357;49.990;7.370;2023-05-10T12:33:37;5.18;;;1.52;;
22378;SDS011;11357;49.990;7.370;2023-05-10T12:36:06;1.30;;;0.90;;
22378;SDS011;11357;49.990;7.370;2023-05-10T12:38:33;3.53;;;1.25;;
22378;SDS011;11357;49.990;7.370;2023-05-10T12:41:03;4.10;;;1.25;;
22378;SDS011;11357;49.990;7.370;2023-05-10T12:43:33;4.50;;;1.02;;
22378;SDS011;11357;49.990;7.370;2023-05-10T12:48:32;1.85;;;0.80;;
22378;SDS011;11357;49.990;7.370;2023-05-10T12:50:59;3.22;;;1.15;;
22378;SDS011;11357;49.990;7.370;2023-05-10T12:53:26;5.78;;;1.50;;
22378;SDS011;11357;49.990;7.370;2023-05-10T12:55:51;2.22;;;0.95;;
22378;SDS011;11357;49.990;7.370;2023-05-10T12:58:18;2.15;;;1.27;;
22378;SDS011;11357;49.990;7.370;2023-05-10T13:00:44;3.50;;;1.38;;
22378;SDS011;11357;49.990;7.370;2023-05-10T13:03:09;3.33;;;1.30;;
22378;SDS011;11357;49.990;7.370;2023-05-10T13:05:35;2.55;;;1.30;;
22378;SDS011;11357;49.990;7.370;2023-05-10T13:08:01;1.52;;;1.10;;
22378;SDS011;11357;49.990;7.370;2023-05-10T13:10:29;2.65;;;1.30;;
22378;SDS011;11357;49.990;7.370;2023-05-10T13:12:56;3.95;;;1.20;;
22378;SDS011;11357;49.990;7.370;2023-05-10T13:15:22;3.83;;;1.48;;
22378;SDS011;11357;49.990;7.370;2023-05-10T13:17:48;5.85;;;1.15;;
22378;SDS011;11357;49.990;7.370;2023-05-10T13:20:13;3.30;;;1.17;;
22378;SDS011;11357;49.990;7.370;2023-05-10T13:22:40;3.78;;;1.10;;
22378;SDS011;11357;49.990;7.370;2023-05-10T13:25:07;5.55;;;1.10;;
22378;SDS011;11357;49.990;7.370;2023-05-10T13:27:33;2.70;;;1.20;;
22378;SDS011;11357;49.990;7.370;2023-05-10T13:29:58;3.05;;;1.10;;
22378;SDS011;11357;49.990;7.370;2023-05-10T13:32:24;4.65;;;0.95;;
22378;SDS011;11357;49.990;7.370;2023-05-10T13:34:51;6.90;;;1.27;;
22378;SDS011;11357;49.990;7.370;2023-05-10T13:37:24;2.78;;;1.23;;
22378;SDS011;11357;49.990;7.370;2023-05-10T13:39:50;3.95;;;1.10;;
22378;SDS011;11357;49.990;7.370;2023-05-10T13:42:17;3.15;;;1.10;;
22378;SDS011;11357;49.990;7.370;2023-05-10T13:44:43;6.97;;;1.80;;
22378;SDS011;11357;49.990;7.370;2023-05-10T13:47:09;3.08;;;1.23;;
22378;SDS011;11357;49.990;7.370;2023-05-10T13:49:35;2.75;;;1.17;;
22378;SDS011;11357;49.990;7.370;2023-05-10T13:52:01;4.15;;;0.90;;
22378;SDS011;11357;49.990;7.370;2023-05-10T13:54:49;2.08;;;1.00;;
22378;SDS011;11357;49.990;7.370;2023-05-10T13:57:16;2.42;;;1.30;;
22378;SDS011;11357;49.990;7.370;2023-05-10T13:59:43;3.03;;;1.20;;
22378;SDS011;11357;49.990;7.370;2023-05-10T14:02:08;4.75;;;1.33;;
22378;SDS011;11357;49.990;7.370;2023-05-10T14:04:35;3.03;;;1.45;;
22378;SDS011;11357;49.990;7.370;2023-05-10T14:07:01;5.32;;;1.35;;
22378;SDS011;11357;49.990;7.370;2023-05-10T14:09:26;3.13;;;1.23;;
22378;SDS011;11357;49.990;7.370;2023-05-10T14:11:52;2.47;;;1.10;;
22378;SDS011;11357;49.990;7.370;2023-05-10T14:14:18;3.03;;;1.15;;
22378;SDS011;11357;49.990;7.370;2023-05-10T14:16:44;5.55;;;1.13;;
22378;SDS011;11357;49.990;7.370;2023-05-10T14:19:10;4.18;;;1.20;;
22378;SDS011;11357;49.990;7.370;2023-05-10T14:21:36;2.80;;;1.00;;
22378;SDS011;11357;49.990;7.370;2023-05-10T14:24:02;3.83;;;1.10;;
22378;SDS011;11357;49.990;7.370;2023-05-10T14:26:30;3.70;;;0.80;;
22378;SDS011;11357;49.990;7.370;2023-05-10T14:29:04;4.60;;;0.82;;
22378;SDS011;11357;49.990;7.370;2023-05-10T14:31:30;3.92;;;1.40;;
22378;SDS011;11357;49.990;7.370;2023-05-10T14:33:55;5.32;;;1.08;;
22378;SDS011;11357;49.990;7.370;2023-05-10T14:36:22;3.50;;;1.00;;
22378;SDS011;11357;49.990;7.370;2023-05-10T14:38:48;3.72;;;1.17;;
22378;SDS011;11357;49.990;7.370;2023-05-10T14:41:15;1.50;;;0.88;;
22378;SDS011;11357;49.990;7.370;2023-05-10T14:43:42;3.53;;;1.13;;
22378;SDS011;11357;49.990;7.370;2023-05-10T14:46:08;3.63;;;1.33;;
22378;SDS011;11357;49.990;7.370;2023-05-10T14:48:34;6.35;;;0.88;;
22378;SDS011;11357;49.990;7.370;2023-05-10T14:51:00;2.63;;;0.85;;
22378;SDS011;11357;49.990;7.370;2023-05-10T14:53:25;5.38;;;0.75;;
22378;SDS011;11357;49.990;7.370;2023-05-10T14:55:51;3.58;;;1.65;;
22378;SDS011;11357;49.990;7.370;2023-05-10T14:58:17;2.45;;;0.70;;
22378;SDS011;11357;49.990;7.370;2023-05-10T15:00:43;1.88;;;0.80;;
22378;SDS011;11357;49.990;7.370;2023-05-10T15:03:08;2.67;;;0.88;;
22378;SDS011;11357;49.990;7.370;2023-05-10T15:05:34;2.42;;;0.90;;
22378;SDS011;11357;49.990;7.370;2023-05-10T15:10:31;5.00;;;0.80;;
22378;SDS011;11357;49.990;7.370;2023-05-10T15:12:57;2.20;;;0.73;;
22378;SDS011;11357;49.990;7.370;2023-05-10T15:15:23;3.25;;;0.80;;
22378;SDS011;11357;49.990;7.370;2023-05-10T15:17:49;2.20;;;0.90;;
22378;SDS011;11357;49.990;7.370;2023-05-10T15:20:15;3.30;;;0.77;;
22378;SDS011;11357;49.990;7.370;2023-05-10T15:22:41;2.25;;;0.80;;
22378;SDS011;11357;49.990;7.370;2023-05-10T15:25:09;2.60;;;0.90;;
22378;SDS011;11357;49.990;7.370;2023-05-10T15:27:37;4.32;;;0.93;;
22378;SDS011;11357;49.990;7.370;2023-05-10T15:33:10;1.70;;;1.00;;
22378;SDS011;11357;49.990;7.370;2023-05-10T15:35:36;3.97;;;0.98;;
22378;SDS011;11357;49.990;7.370;2023-05-10T15:38:15;3.50;;;0.80;;
22378;SDS011;11357;49.990;7.370;2023-05-10T15:40:42;3.60;;;0.75;;
22378;SDS011;11357;49.990;7.370;2023-05-10T15:45:38;2.78;;;0.88;;
22378;SDS011;11357;49.990;7.370;2023-05-10T15:48:04;3.55;;;0.93;;
22378;SDS011;11357;49.990;7.370;2023-05-10T15:50:30;3.22;;;1.08;;
22378;SDS011;11357;49.990;7.370;2023-05-10T15:52:56;0.90;;;0.70;;
22378;SDS011;11357;49.990;7.370;2023-05-10T15:55:21;2.60;;;0.88;;
22378;SDS011;11357;49.990;7.370;2023-05-10T15:57:47;5.40;;;1.90;;
22378;SDS011;11357;49.990;7.370;2023-05-10T16:00:14;2.38;;;0.80;;
22378;SDS011;11357;49.990;7.370;2023-05-10T16:02:40;5.50;;;0.80;;
22378;SDS011;11357;49.990;7.370;2023-05-10T16:05:06;4.28;;;0.95;;
22378;SDS011;11357;49.990;7.370;2023-05-10T16:07:33;2.33;;;0.70;;
22378;SDS011;11357;49.990;7.370;2023-05-10T16:09:59;2.42;;;0.52;;
22378;SDS011;11357;49.990;7.370;2023-05-10T16:12:28;3.05;;;1.08;;
22378;SDS011;11357;49.990;7.370;2023-05-10T16:14:55;2.38;;;1.10;;
22378;SDS011;11357;49.990;7.370;2023-05-10T16:17:21;0.98;;;0.70;;
22378;SDS011;11357;49.990;7.370;2023-05-10T16:19:46;3.38;;;0.80;;
22378;SDS011;11357;49.990;7.370;2023-05-10T16:22:12;4.40;;;0.93;;
22378;SDS011;11357;49.990;7.370;2023-05-10T16:24:38;2.58;;;0.88;;
22378;SDS011;11357;49.990;7.370;2023-05-10T16:27:05;2.42;;;0.93;;
22378;SDS011;11357;49.990;7.370;2023-05-10T16:29:31;1.50;;;0.95;;
22378;SDS011;11357;49.990;7.370;2023-05-10T16:31:56;7.15;;;2.05;;
22378;SDS011;11357;49.990;7.370;2023-05-10T16:34:22;1.90;;;0.82;;
22378;SDS011;11357;49.990;7.370;2023-05-10T16:36:49;1.60;;;0.80;;
22378;SDS011;11357;49.990;7.370;2023-05-10T16:39:15;1.90;;;0.70;;
22378;SDS011;11357;49.990;7.370;2023-05-10T16:41:41;5.60;;;1.10;;
22378;SDS011;11357;49.990;7.370;2023-05-10T16:44:07;0.95;;;0.60;;
22378;SDS011;11357;49.990;7.370;2023-05-10T16:46:32;2.90;;;0.90;;
22378;SDS011;11357;49.990;7.370;2023-05-10T16:48:58;2.28;;;0.65;;
22378;SDS011;11357;49.990;7.370;2023-05-10T16:51:24;3.78;;;1.00;;
22378;SDS011;11357;49.990;7.370;2023-05-10T16:53:51;2.38;;;0.88;;
22378;SDS011;11357;49.990;7.370;2023-05-10T16:56:17;3.20;;;0.95;;
22378;SDS011;11357;49.990;7.370;2023-05-10T16:58:45;4.32;;;0.93;;
22378;SDS011;11357;49.990;7.370;2023-05-10T17:01:13;1.75;;;0.70;;
22378;SDS011;11357;49.990;7.370;2023-05-10T17:03:40;1.83;;;0.80;;
22378;SDS011;11357;49.990;7.370;2023-05-10T17:06:06;6.65;;;1.20;;
22378;SDS011;11357;49.990;7.370;2023-05-10T17:08:32;2.53;;;0.80;;
22378;SDS011;11357;49.990;7.370;2023-05-10T17:11:01;3.08;;;0.70;;